createdAt,value
2019-02-26T00:01:36.285Z,101010.59
2019-02-26T00:05:47.841Z,101014.80
2019-02-26T00:09:55.725Z,101024.78
2019-02-26T00:14:03.873Z,101017.27
2019-02-26T00:18:14.026Z,101009.78
2019-02-26T00:22:22.246Z,101009.91
2019-02-26T00:26:34.113Z,100997.69
2019-02-26T00:30:42.481Z,101005.48
2019-02-26T00:34:53.080Z,100999.18
2019-02-26T00:39:02.910Z,101000.20
2019-02-26T00:43:11.765Z,100984.30
2019-02-26T00:47:19.553Z,100977.83
2019-02-26T00:51:27.661Z,100972.87
2019-02-26T00:55:37.362Z,100973.07
2019-02-26T00:59:46.412Z,100961.98
2019-02-26T01:03:55.397Z,100956.75
2019-02-26T01:08:02.833Z,100950.56
2019-02-26T01:12:13.219Z,100935.92
2019-02-26T01:16:20.763Z,100930.69
2019-02-26T01:20:30.234Z,100921.04
2019-02-26T01:24:38.137Z,100903.01
2019-02-26T01:28:48.280Z,100904.37
2019-02-26T01:32:57.600Z,100891.77
2019-02-26T01:37:05.960Z,100897.91
2019-02-26T01:41:15.574Z,100888.61
2019-02-26T01:45:25.020Z,100880.56
2019-02-26T01:49:33.583Z,100877.03
2019-02-26T01:53:42.327Z,100878.58
2019-02-26T01:57:51.065Z,100876.44
2019-02-26T02:01:59.372Z,100856.33
2019-02-26T02:06:10.645Z,100870.00
2019-02-26T02:10:17.346Z,100869.37
2019-02-26T02:14:25.066Z,100858.51
2019-02-26T02:18:32.668Z,100862.48
2019-02-26T02:22:42.183Z,100851.39
2019-02-26T02:26:52.961Z,100854.29
2019-02-26T02:31:00.272Z,100853.14
2019-02-26T02:35:10.109Z,100846.05
2019-02-26T02:39:20.786Z,100847.50
2019-02-26T02:43:28.025Z,100833.80
2019-02-26T02:47:38.698Z,100834.61
2019-02-26T02:51:46.400Z,100838.35
2019-02-26T02:55:54.222Z,100829.92
2019-02-26T03:00:02.964Z,100830.11
2019-02-26T03:04:14.717Z,100830.06
2019-02-26T03:08:22.627Z,100830.45
2019-02-26T03:12:30.775Z,100829.04
2019-02-26T03:16:41.945Z,100820.56
2019-02-26T03:20:51.228Z,100819.59
2019-02-26T03:24:59.601Z,100819.02
2019-02-26T03:29:09.089Z,100822.88
2019-02-26T03:33:16.707Z,100823.84
2019-02-26T03:37:25.816Z,100818.86
2019-02-26T03:41:33.761Z,100807.48
2019-02-26T03:45:41.342Z,100806.70
2019-02-26T03:49:50.091Z,100803.60
2019-02-26T03:53:57.699Z,100802.44
2019-02-26T03:58:06.104Z,100803.84
2019-02-26T04:02:15.325Z,100802.39
2019-02-26T04:06:23.877Z,100798.02
2019-02-26T04:10:31.591Z,100794.41
2019-02-26T04:14:39.717Z,100778.81
2019-02-26T04:18:49.086Z,100766.13
2019-02-26T04:22:57.294Z,100770.51
2019-02-26T04:27:47.267Z,100761.59
2019-02-26T04:32:43.565Z,100744.33
2019-02-26T04:37:38.521Z,100738.89
2019-02-26T04:42:11.944Z,100730.23
2019-02-26T04:46:42.386Z,100735.58
2019-02-26T04:50:51.815Z,100732.53
2019-02-26T04:55:00.379Z,100729.28
2019-02-26T04:59:09.818Z,100721.53
2019-02-26T05:03:20.079Z,100724.91
2019-02-26T05:07:27.883Z,100721.47
2019-02-26T05:11:39.872Z,100733.52
2019-02-26T05:15:45.762Z,100725.83
2019-02-26T05:19:53.774Z,100719.30
2019-02-26T05:24:03.010Z,100721.83
2019-02-26T05:28:12.537Z,100723.47
2019-02-26T05:32:21.855Z,100715.20
2019-02-26T05:36:31.746Z,100717.59
2019-02-26T05:40:42.757Z,100706.48
2019-02-26T05:44:53.758Z,100692.89
2019-02-26T05:49:00.639Z,100690.87
2019-02-26T05:53:11.433Z,100674.38
2019-02-26T05:57:29.164Z,100670.59
2019-02-26T06:01:28.088Z,100659.86
2019-02-26T06:05:41.134Z,100650.89
2019-02-26T06:09:48.007Z,100650.22
2019-02-26T06:13:58.317Z,100645.28
2019-02-26T06:18:05.783Z,100641.67
2019-02-26T06:22:16.956Z,100638.00
2019-02-26T06:26:28.166Z,100633.82
2019-02-26T06:30:33.424Z,100614.21
2019-02-26T06:34:41.240Z,100619.81
2019-02-26T06:38:49.760Z,100614.20
2019-02-26T06:42:58.915Z,100607.72
2019-02-26T06:47:07.294Z,100605.27
2019-02-26T06:51:16.579Z,100598.34
2019-02-26T06:55:24.748Z,100599.36
2019-02-26T06:59:34.941Z,100586.46
2019-02-26T07:03:42.715Z,100580.97
2019-02-26T07:07:54.040Z,100571.05
2019-02-26T07:12:01.808Z,100567.38
2019-02-26T07:16:10.094Z,100562.20
2019-02-26T07:20:17.746Z,100554.37
2019-02-26T07:24:27.186Z,100534.60
2019-02-26T07:28:39.187Z,100521.94
2019-02-26T07:32:48.484Z,100524.37
2019-02-26T07:36:56.429Z,100524.25
2019-02-26T07:41:06.163Z,100515.42
2019-02-26T07:45:19.685Z,100513.59
2019-02-26T07:49:25.855Z,100514.94
2019-02-26T07:53:34.186Z,100508.00
2019-02-26T07:57:43.623Z,100505.92
2019-02-26T08:01:51.504Z,100512.55
2019-02-26T08:06:03.624Z,100496.93
2019-02-26T08:10:14.457Z,100501.70
2019-02-26T08:14:23.370Z,100489.52
2019-02-26T08:18:32.249Z,100477.77
2019-02-26T08:22:39.976Z,100458.97
2019-02-26T08:26:49.683Z,100448.72
2019-02-26T08:30:57.534Z,100432.11
2019-02-26T08:35:05.745Z,100438.88
2019-02-26T08:39:15.730Z,100427.42
2019-02-26T08:43:23.630Z,100416.05
2019-02-26T08:47:31.677Z,100401.00
2019-02-26T08:51:39.875Z,100386.39
2019-02-26T08:55:47.764Z,100381.52
2019-02-26T08:59:55.520Z,100368.51
2019-02-26T09:04:03.539Z,100370.16
2019-02-26T09:08:13.343Z,100364.95
2019-02-26T09:12:22.416Z,100353.98
2019-02-26T09:16:32.789Z,100332.74
2019-02-26T09:20:42.526Z,100320.69
2019-02-26T09:24:52.045Z,100310.12
2019-02-26T09:29:00.284Z,100291.09
2019-02-26T09:33:10.857Z,100283.72
2019-02-26T09:37:18.253Z,100285.18
2019-02-26T09:41:26.488Z,100276.61
2019-02-26T09:45:34.820Z,100268.80
2019-02-26T09:49:42.519Z,100270.38
2019-02-26T09:53:53.867Z,100258.44
2019-02-26T09:58:03.558Z,100244.57
2019-02-26T10:02:11.317Z,100240.25
2019-02-26T10:06:21.607Z,100246.72
2019-02-26T10:10:31.184Z,100232.70
2019-02-26T10:14:38.901Z,100221.50
2019-02-26T10:18:47.874Z,100222.09
2019-02-26T10:23:00.000Z,100217.54
2019-02-26T10:27:08.708Z,100197.81
2019-02-26T10:31:16.064Z,100185.57
2019-02-26T10:35:32.454Z,100183.66
2019-02-26T10:39:33.334Z,100176.51
2019-02-26T10:43:41.592Z,100164.61
2019-02-26T10:47:51.337Z,100138.87
2019-02-26T10:52:00.352Z,100143.23
2019-02-26T10:56:08.595Z,100138.44
2019-02-26T11:00:19.743Z,100118.06
2019-02-26T11:04:34.647Z,100095.44
2019-02-26T11:08:38.759Z,100081.27
2019-02-26T11:12:48.233Z,100065.97
2019-02-26T11:16:56.544Z,100045.50
2019-02-26T11:21:04.855Z,100021.09
2019-02-26T11:25:13.355Z,100011.91
2019-02-26T11:29:22.738Z,100004.64
2019-02-26T11:33:30.671Z,100001.06
2019-02-26T11:37:42.242Z,99998.55
2019-02-26T11:41:53.771Z,100013.84
2019-02-26T11:46:01.558Z,99996.64
2019-02-26T11:50:11.865Z,100004.90
2019-02-26T11:54:19.618Z,100001.62
2019-02-26T11:58:27.340Z,99982.59
2019-02-26T12:02:37.070Z,99976.98
2019-02-26T12:06:45.336Z,99970.08
2019-02-26T12:10:57.659Z,99949.19
2019-02-26T12:15:04.420Z,99928.39
2019-02-26T12:19:12.601Z,99904.77
2019-02-26T12:23:22.755Z,99903.03
2019-02-26T12:27:30.276Z,99890.59
2019-02-26T12:31:39.042Z,99895.17
2019-02-26T12:35:46.833Z,99899.26
2019-02-26T12:39:55.542Z,99895.72
2019-02-26T12:44:10.662Z,99887.61
2019-02-26T12:48:16.256Z,99883.47
2019-02-26T12:52:25.117Z,99879.03
2019-02-26T12:56:36.760Z,99878.05
2019-02-26T13:00:43.088Z,99857.81
2019-02-26T13:04:53.378Z,99838.94
2019-02-26T13:09:00.561Z,99841.47
2019-02-26T13:13:10.373Z,99841.59
2019-02-26T13:17:21.005Z,99832.63
2019-02-26T13:21:28.197Z,99826.44
2019-02-26T13:25:36.354Z,99820.06
2019-02-26T13:33:54.831Z,99813.49
2019-02-26T13:38:03.142Z,99801.45
2019-02-26T13:42:14.066Z,99804.53
2019-02-26T13:46:20.735Z,99794.25
2019-02-26T13:50:29.410Z,99803.30
2019-02-26T13:54:37.449Z,99798.78
2019-02-26T13:58:45.561Z,99795.25
2019-02-26T14:02:53.878Z,99797.36
2019-02-26T14:07:01.485Z,99790.63
2019-02-26T14:11:09.522Z,99789.39
2019-02-26T14:15:19.896Z,99781.64
2019-02-26T14:19:27.677Z,99781.17
2019-02-26T14:23:35.936Z,99780.76
2019-02-26T14:27:44.015Z,99771.31
2019-02-26T14:31:51.845Z,99761.02
2019-02-26T14:36:00.147Z,99765.95
2019-02-26T14:40:09.870Z,99767.90
2019-02-26T14:44:17.921Z,99785.22
2019-02-26T14:48:26.037Z,99788.13
2019-02-26T14:52:33.758Z,99785.13
2019-02-26T14:56:41.493Z,99787.02
2019-02-26T15:00:57.344Z,99787.94
2019-02-26T15:04:59.424Z,99788.77
2019-02-26T15:09:08.651Z,99798.08
2019-02-26T15:13:17.819Z,99784.16
2019-02-26T15:17:25.496Z,99796.94
2019-02-26T15:21:33.800Z,99794.92
2019-02-26T15:25:44.080Z,99798.42
2019-02-26T15:29:52.323Z,99803.36
2019-02-26T15:34:00.711Z,99806.63
2019-02-26T15:38:08.958Z,99804.61
2019-02-26T15:42:19.122Z,99813.60
2019-02-26T15:46:28.570Z,99812.66
2019-02-26T15:50:37.750Z,99811.99
2019-02-26T15:54:46.175Z,99811.96
2019-02-26T15:58:54.379Z,99814.88
2019-02-26T16:03:02.003Z,99821.84
2019-02-26T16:07:10.187Z,99824.97
2019-02-26T16:11:18.420Z,99826.06
2019-02-26T16:15:26.322Z,99829.56
2019-02-26T16:19:34.029Z,99831.11
2019-02-26T16:23:42.158Z,99830.02
2019-02-26T16:27:51.683Z,99825.84
2019-02-26T16:31:59.702Z,99819.34
2019-02-26T16:36:07.625Z,99831.23
2019-02-26T16:40:15.756Z,99834.84
2019-02-26T16:44:24.799Z,99834.63
2019-02-26T16:48:33.030Z,99840.03
2019-02-26T16:52:41.349Z,99829.77
2019-02-26T16:56:50.243Z,99829.58
2019-02-26T17:00:57.833Z,99829.45
2019-02-26T17:05:06.185Z,99832.11
2019-02-26T17:09:13.909Z,99832.81
2019-02-26T17:13:22.428Z,99847.46
2019-02-26T17:17:31.074Z,99845.55
2019-02-26T17:21:38.864Z,99851.67
2019-02-26T17:25:47.113Z,99850.36
2019-02-26T17:29:55.044Z,99845.55
2019-02-26T17:34:02.714Z,99831.85
2019-02-26T17:38:12.360Z,99815.41
2019-02-26T17:42:20.307Z,99807.94
2019-02-26T17:46:28.683Z,99795.78
2019-02-26T17:50:37.759Z,99788.36
2019-02-26T17:54:45.452Z,99800.59
2019-02-26T17:58:53.701Z,99805.16
2019-02-26T18:03:07.352Z,99807.60
2019-02-26T18:07:15.105Z,99812.30
2019-02-26T18:11:23.611Z,99815.50
2019-02-26T18:15:31.997Z,99824.01
2019-02-26T18:19:40.861Z,99826.91
2019-02-26T18:23:48.947Z,99827.59
2019-02-26T18:27:57.665Z,99831.20
2019-02-26T18:32:06.423Z,99825.30
2019-02-26T18:36:16.024Z,99815.92
2019-02-26T18:40:28.058Z,99805.70
2019-02-26T18:44:35.637Z,99804.73
2019-02-26T18:48:43.472Z,99804.70
2019-02-26T18:52:52.282Z,99806.22
2019-02-26T18:57:01.296Z,99800.80
2019-02-26T19:01:09.626Z,99786.83
2019-02-26T19:05:20.628Z,99792.92
2019-02-26T19:09:27.856Z,99795.16
2019-02-26T19:13:36.304Z,99803.63
2019-02-26T19:17:45.953Z,99799.03
2019-02-26T19:21:54.701Z,99795.78
2019-02-26T19:26:02.627Z,99796.63
2019-02-26T19:30:12.812Z,99799.61
2019-02-26T19:34:21.135Z,99804.84
2019-02-26T19:38:28.921Z,99800.29
2019-02-26T19:42:37.333Z,99799.72
2019-02-26T19:46:49.389Z,99796.42
2019-02-26T19:50:55.537Z,99804.67
2019-02-26T19:55:05.853Z,99807.77
2019-02-26T19:59:15.412Z,99812.19
2019-02-26T20:03:23.237Z,99811.01
2019-02-26T20:07:32.524Z,99808.73
2019-02-26T20:11:40.897Z,99815.94
2019-02-26T20:15:49.617Z,99819.29
2019-02-26T20:19:58.150Z,99824.20
2019-02-26T20:24:05.710Z,99819.30
2019-02-26T20:28:13.266Z,99814.27
2019-02-26T20:32:21.410Z,99800.44
2019-02-26T20:36:29.240Z,99808.64
2019-02-26T20:40:37.490Z,99810.67
2019-02-26T20:44:45.429Z,99801.66
2019-02-26T20:48:53.739Z,99812.56
2019-02-26T20:53:05.656Z,99823.40
2019-02-26T20:57:11.371Z,99806.50
2019-02-26T21:01:19.625Z,99812.87
2019-02-26T21:05:27.374Z,99811.80
2019-02-26T21:09:37.849Z,99820.05
2019-02-26T21:13:45.319Z,99825.47
2019-02-26T21:17:53.022Z,99826.53
2019-02-26T21:22:01.150Z,99827.54
2019-02-26T21:26:09.256Z,99821.44
2019-02-26T21:30:17.891Z,99838.09
2019-02-26T21:34:26.104Z,99834.41
2019-02-26T21:38:38.609Z,99825.98
2019-02-26T21:42:44.105Z,99813.91
2019-02-26T21:46:53.738Z,99831.15
2019-02-26T21:51:02.051Z,99828.60
2019-02-26T21:55:10.145Z,99828.23
2019-02-26T21:59:18.378Z,99836.09
2019-02-26T22:03:26.519Z,99828.03
2019-02-26T22:07:34.209Z,99841.65
2019-02-26T22:11:42.424Z,99838.97
2019-02-26T22:15:50.745Z,99858.89
2019-02-26T22:19:58.457Z,99880.73
2019-02-26T22:24:07.002Z,99882.58
2019-02-26T22:28:15.815Z,99887.33
2019-02-26T22:32:23.520Z,99901.20
2019-02-26T22:36:33.310Z,99906.69
2019-02-26T22:40:41.295Z,99917.26
2019-02-26T22:44:49.002Z,99916.27
2019-02-26T22:48:57.168Z,99922.00
2019-02-26T22:53:05.080Z,99916.70
2019-02-26T22:57:13.249Z,99921.70
2019-02-26T23:01:36.383Z,99924.37
2019-02-26T23:05:40.858Z,99932.28
2019-02-26T23:09:52.086Z,99932.70
2019-02-26T23:14:02.692Z,99934.38
2019-02-26T23:18:09.908Z,99939.87
2019-02-26T23:22:18.137Z,99938.86
2019-02-26T23:26:26.467Z,99941.59
2019-02-26T23:30:35.174Z,99944.46
2019-02-26T23:34:43.623Z,99939.13
2019-02-26T23:38:51.328Z,99938.77
2019-02-26T23:42:59.034Z,99947.66
2019-02-26T23:47:10.557Z,99945.02
2019-02-26T23:51:21.030Z,99945.19
2019-02-26T23:55:29.530Z,99931.48
2019-02-26T23:59:37.608Z,99930.23
